createdAt,value
2022-08-07T00:02:36.360Z,17.34
2022-08-07T00:04:57.988Z,17.31
2022-08-07T00:07:24.678Z,17.29
2022-08-07T00:10:11.094Z,17.26
2022-08-07T00:12:43.627Z,17.22
2022-08-07T00:15:25.847Z,17.17
2022-08-07T00:18:05.947Z,17.13
2022-08-07T00:20:34.373Z,17.08
2022-08-07T00:23:02.335Z,17.02
2022-08-07T00:25:28.971Z,16.98
2022-08-07T00:28:04.450Z,16.94
2022-08-07T00:30:31.701Z,16.92
2022-08-07T00:33:00.025Z,16.89
2022-08-07T00:35:30.096Z,16.86
2022-08-07T00:37:57.721Z,16.86
2022-08-07T00:40:40.041Z,16.84
2022-08-07T00:43:09.997Z,16.82
2022-08-07T00:45:39.246Z,16.80
2022-08-07T00:48:09.255Z,16.77
2022-08-07T00:50:46.687Z,16.74
2022-08-07T00:53:19.473Z,16.71
2022-08-07T00:56:02.139Z,16.68
2022-08-07T00:58:31.421Z,16.67
2022-08-07T01:00:58.754Z,16.65
2022-08-07T01:03:55.547Z,16.65
2022-08-07T01:06:12.710Z,16.64
2022-08-07T01:08:43.297Z,16.62
2022-08-07T01:12:04.404Z,16.61
2022-08-07T01:14:08.138Z,16.59
2022-08-07T01:16:36.875Z,16.59
2022-08-07T01:19:14.837Z,16.57
2022-08-07T01:21:48.547Z,16.54
2022-08-07T01:24:21.179Z,16.52
2022-08-07T01:26:52.110Z,16.52
2022-08-07T01:29:22.051Z,16.53
2022-08-07T01:31:49.615Z,16.50
2022-08-07T01:34:18.722Z,16.47
2022-08-07T01:36:52.708Z,16.45
2022-08-07T01:39:40.553Z,16.44
2022-08-07T01:42:39.874Z,16.41
2022-08-07T01:45:10.029Z,16.42
2022-08-07T01:48:29.654Z,16.43
2022-08-07T01:50:30.438Z,16.41
2022-08-07T01:52:58.893Z,16.40
2022-08-07T01:55:47.684Z,16.36
2022-08-07T01:58:27.188Z,16.40
2022-08-07T02:01:10.155Z,16.39
2022-08-07T02:04:01.265Z,16.39
2022-08-07T02:06:32.913Z,16.39
2022-08-07T02:09:03.746Z,16.38
2022-08-07T02:12:02.903Z,16.37
2022-08-07T02:14:36.325Z,16.38
2022-08-07T02:17:10.851Z,16.42
2022-08-07T02:20:04.874Z,16.39
2022-08-07T02:22:30.691Z,16.36
2022-08-07T02:24:59.075Z,16.34
2022-08-07T02:27:34.319Z,16.32
2022-08-07T02:30:03.998Z,16.31
2022-08-07T02:32:36.301Z,16.31
2022-08-07T02:35:09.306Z,16.28
2022-08-07T02:37:44.043Z,16.27
2022-08-07T02:40:30.060Z,16.26
2022-08-07T02:42:59.087Z,16.25
2022-08-07T02:45:58.788Z,16.21
2022-08-07T02:48:18.140Z,16.23
2022-08-07T02:50:50.488Z,16.21
2022-08-07T02:53:27.538Z,16.18
2022-08-07T02:56:03.055Z,16.17
2022-08-07T02:58:33.889Z,16.17
2022-08-07T03:01:03.193Z,16.13
2022-08-07T03:03:49.044Z,16.13
2022-08-07T03:06:32.083Z,16.13
2022-08-07T03:09:01.791Z,16.12
2022-08-07T03:11:29.505Z,16.10
2022-08-07T03:14:01.594Z,16.08
2022-08-07T03:16:30.868Z,16.07
2022-08-07T03:18:59.442Z,16.06
2022-08-07T03:21:28.606Z,16.05
2022-08-07T03:24:20.376Z,16.04
2022-08-07T03:26:57.835Z,16.03
2022-08-07T03:29:27.744Z,16.02
2022-08-07T03:31:56.011Z,16.02
2022-08-07T03:34:27.442Z,16.01
2022-08-07T03:36:55.079Z,16.00
2022-08-07T03:39:45.903Z,15.99
2022-08-07T03:42:13.532Z,15.98
2022-08-07T03:44:40.849Z,15.97
2022-08-07T03:47:13.287Z,15.95
2022-08-07T03:49:51.954Z,15.94
2022-08-07T03:52:26.521Z,15.92
2022-08-07T03:55:07.251Z,15.89
2022-08-07T03:58:35.122Z,15.92
2022-08-07T04:00:29.153Z,15.94
2022-08-07T04:02:58.983Z,15.94
2022-08-07T04:05:39.800Z,15.95
2022-08-07T04:08:11.241Z,15.94
2022-08-07T04:10:38.977Z,15.96
2022-08-07T04:13:07.760Z,15.97
2022-08-07T04:15:45.490Z,15.97
2022-08-07T04:18:58.299Z,15.96
2022-08-07T04:21:01.343Z,15.97
2022-08-07T04:23:43.653Z,15.98
2022-08-07T04:26:16.772Z,15.98
2022-08-07T04:28:43.949Z,15.99
2022-08-07T04:31:19.631Z,15.99
2022-08-07T04:33:47.370Z,16.01
2022-08-07T04:36:22.692Z,16.03
2022-08-07T04:38:52.937Z,16.02
2022-08-07T04:41:19.636Z,16.04
2022-08-07T04:44:09.645Z,16.05
2022-08-07T04:47:05.010Z,16.03
2022-08-07T04:49:57.864Z,16.06
2022-08-07T04:52:57.880Z,16.11
2022-08-07T04:58:07.557Z,16.13
2022-08-07T04:58:42.444Z,16.17
2022-08-07T05:01:18.040Z,16.18
2022-08-07T05:04:06.375Z,16.20
2022-08-07T05:06:59.103Z,16.21
2022-08-07T05:09:46.660Z,16.24
2022-08-07T05:12:26.882Z,16.30
2022-08-07T05:15:04.278Z,16.34
2022-08-07T05:17:52.045Z,16.37
2022-08-07T05:20:27.052Z,16.41
2022-08-07T05:22:56.905Z,16.45
2022-08-07T05:25:26.135Z,16.53
2022-08-07T05:28:20.980Z,16.56
2022-08-07T05:30:52.268Z,16.60
2022-08-07T05:33:20.877Z,16.63
2022-08-07T05:35:50.697Z,16.68
2022-08-07T05:38:59.452Z,16.71
2022-08-07T05:41:14.523Z,16.77
2022-08-07T05:44:07.584Z,16.84
2022-08-07T05:46:37.706Z,16.91
2022-08-07T05:49:11.641Z,16.96
2022-08-07T05:51:39.967Z,17.03
2022-08-07T05:54:12.865Z,17.10
2022-08-07T05:56:54.761Z,17.16
2022-08-07T05:59:24.662Z,17.24
2022-08-07T06:01:51.816Z,17.29
2022-08-07T06:04:21.425Z,17.35
2022-08-07T06:07:03.699Z,17.44
2022-08-07T06:09:44.908Z,17.50
2022-08-07T06:12:12.483Z,17.58
2022-08-07T06:14:43.261Z,17.64
2022-08-07T06:17:18.055Z,17.71
2022-08-07T06:20:03.296Z,17.77
2022-08-07T06:22:38.934Z,17.85
2022-08-07T06:25:10.307Z,17.92
2022-08-07T06:28:00.717Z,18.00
2022-08-07T06:30:35.542Z,18.06
2022-08-07T06:33:03.881Z,18.14
2022-08-07T06:35:45.509Z,18.20
2022-08-07T06:38:20.149Z,18.28
2022-08-07T06:40:51.100Z,18.34
2022-08-07T06:43:23.528Z,18.42
2022-08-07T06:45:50.906Z,18.51
2022-08-07T06:48:24.716Z,18.57
2022-08-07T06:50:53.362Z,18.65
2022-08-07T06:54:12.080Z,18.71
2022-08-07T06:56:15.193Z,18.80
2022-08-07T07:00:14.271Z,18.88
2022-08-07T07:01:38.825Z,18.95
2022-08-07T07:04:28.019Z,19.04
2022-08-07T07:07:01.293Z,19.11
2022-08-07T07:09:31.184Z,19.17
2022-08-07T07:12:19.567Z,19.22
2022-08-07T07:15:00.650Z,19.31
2022-08-07T07:17:45.344Z,19.35
2022-08-07T07:20:19.297Z,19.43
2022-08-07T07:24:09.997Z,19.49
2022-08-07T07:26:33.145Z,19.54
2022-08-07T07:29:22.708Z,19.59
2022-08-07T07:31:44.223Z,19.66
2022-08-07T07:34:19.758Z,19.70
2022-08-07T07:36:53.925Z,19.76
2022-08-07T07:39:25.603Z,19.80
2022-08-07T07:42:13.668Z,19.87
2022-08-07T07:44:45.744Z,19.91
2022-08-07T07:47:23.923Z,19.99
2022-08-07T07:50:36.313Z,20.06
2022-08-07T07:52:41.148Z,20.14
2022-08-07T07:55:11.018Z,20.21
2022-08-07T07:57:50.318Z,20.27
2022-08-07T08:00:29.382Z,20.36
2022-08-07T08:03:06.289Z,20.43
2022-08-07T08:05:43.233Z,20.50
2022-08-07T08:08:34.395Z,20.60
2022-08-07T08:11:08.159Z,20.68
2022-08-07T08:16:26.301Z,20.82
2022-08-07T08:18:58.256Z,20.89
2022-08-07T08:21:55.540Z,20.95
2022-08-07T08:24:51.276Z,21.04
2022-08-07T08:27:36.828Z,21.12
2022-08-07T08:30:07.941Z,21.21
2022-08-07T08:32:50.016Z,21.28
2022-08-07T08:35:28.751Z,21.36
2022-08-07T08:38:03.349Z,21.47
2022-08-07T08:40:35.972Z,21.57
2022-08-07T08:43:42.169Z,21.64
2022-08-07T08:46:28.842Z,21.80
2022-08-07T08:49:10.259Z,21.91
2022-08-07T08:52:13.981Z,22.02
2022-08-07T08:54:45.160Z,22.19
2022-08-07T08:57:40.363Z,22.28
2022-08-07T09:00:09.532Z,22.43
2022-08-07T09:02:39.073Z,22.54
2022-08-07T09:05:22.558Z,22.65
2022-08-07T09:08:24.377Z,22.74
2022-08-07T09:11:24.853Z,22.92
2022-08-07T09:14:15.775Z,23.13
2022-08-07T09:17:02.239Z,23.28
2022-08-07T09:19:51.441Z,23.48
2022-08-07T09:24:32.441Z,23.67
2022-08-07T09:25:58.608Z,23.87
2022-08-07T09:30:01.293Z,24.03
2022-08-07T09:31:40.577Z,24.18
2022-08-07T09:34:22.725Z,24.32
2022-08-07T09:36:52.702Z,24.39
2022-08-07T09:39:53.799Z,24.40
2022-08-07T09:42:17.202Z,24.39
2022-08-07T09:47:26.379Z,24.37
2022-08-07T09:48:11.736Z,24.40
2022-08-07T09:51:14.815Z,24.42
2022-08-07T09:54:02.673Z,24.47
2022-08-07T09:57:03.856Z,24.45
2022-08-07T10:00:03.756Z,24.49
2022-08-07T10:02:36.803Z,24.56
2022-08-07T10:05:58.900Z,24.52
2022-08-07T10:08:49.592Z,24.50
2022-08-07T10:12:01.807Z,24.48
2022-08-07T10:14:55.044Z,24.42
2022-08-07T10:18:00.824Z,24.41
2022-08-07T10:20:45.415Z,24.42
2022-08-07T10:24:06.070Z,24.40
2022-08-07T10:27:06.584Z,24.35
2022-08-07T10:29:54.958Z,24.30
2022-08-07T10:32:53.261Z,24.26
2022-08-07T10:35:53.563Z,24.22
2022-08-07T10:38:52.573Z,24.07
2022-08-07T10:42:01.651Z,24.06
2022-08-07T10:44:52.422Z,24.15
2022-08-07T10:47:54.063Z,24.28
2022-08-07T10:50:25.754Z,24.50
2022-08-07T10:53:08.103Z,24.72
2022-08-07T10:55:37.892Z,25.01
2022-08-07T10:58:36.732Z,25.35
2022-08-07T11:01:19.243Z,25.86
2022-08-07T11:04:23.388Z,26.44
2022-08-07T11:07:01.827Z,27.21
2022-08-07T11:10:07.221Z,27.99
2022-08-07T11:12:31.613Z,28.84
2022-08-07T11:15:04.310Z,29.64
2022-08-07T11:17:56.611Z,30.35
2022-08-07T11:21:02.947Z,30.81
2022-08-07T11:23:38.938Z,31.06
2022-08-07T11:26:12.972Z,31.16
2022-08-07T11:28:51.349Z,31.01
2022-08-07T11:31:35.114Z,30.73
2022-08-07T11:34:16.329Z,30.42
2022-08-07T11:36:56.478Z,30.06
2022-08-07T11:39:59.260Z,29.66
2022-08-07T11:42:21.953Z,29.23
2022-08-07T11:45:15.834Z,28.91
2022-08-07T11:47:59.552Z,28.90
2022-08-07T11:50:58.445Z,28.94
2022-08-07T11:54:00.686Z,29.18
2022-08-07T11:56:44.655Z,29.49
2022-08-07T12:00:11.219Z,29.74
2022-08-07T12:02:30.405Z,30.10
2022-08-07T12:05:15.075Z,30.32
2022-08-07T12:08:07.423Z,30.56
2022-08-07T12:11:08.205Z,30.94
2022-08-07T12:13:48.821Z,31.36
2022-08-07T12:16:29.930Z,31.70
2022-08-07T12:19:35.928Z,32.02
2022-08-07T12:22:55.901Z,32.53
2022-08-07T12:26:03.000Z,33.05
2022-08-07T12:28:49.876Z,33.68
2022-08-07T12:32:01.660Z,34.21
2022-08-07T12:34:31.991Z,34.80
2022-08-07T12:37:00.840Z,35.22
2022-08-07T12:39:42.122Z,35.62
2022-08-07T12:42:13.294Z,36.03
2022-08-07T12:44:45.421Z,36.42
2022-08-07T12:47:30.407Z,36.74
2022-08-07T12:50:38.460Z,36.97
2022-08-07T12:53:17.628Z,36.90
2022-08-07T12:56:04.285Z,36.57
2022-08-07T12:58:46.894Z,36.46
2022-08-07T13:01:28.200Z,36.44
2022-08-07T13:04:35.033Z,36.58
2022-08-07T13:08:12.181Z,36.87
2022-08-07T13:10:38.290Z,37.09
2022-08-07T13:13:48.946Z,37.19
2022-08-07T13:16:32.613Z,37.02
2022-08-07T13:19:18.080Z,36.77
2022-08-07T13:22:19.557Z,36.19
2022-08-07T13:25:08.620Z,35.69
2022-08-07T13:28:11.142Z,35.29
2022-08-07T13:30:40.296Z,34.94
2022-08-07T13:34:30.524Z,34.88
2022-08-07T13:36:39.660Z,35.21
2022-08-07T13:39:49.122Z,35.55
2022-08-07T13:42:10.529Z,36.21
2022-08-07T13:44:39.532Z,36.64
2022-08-07T13:47:09.848Z,37.05
2022-08-07T13:50:35.582Z,37.42
2022-08-07T13:52:40.960Z,37.85
2022-08-07T13:55:26.371Z,38.15
2022-08-07T13:58:28.190Z,38.43
2022-08-07T14:01:10.815Z,38.73
2022-08-07T14:04:07.486Z,39.00
2022-08-07T14:06:36.958Z,39.26
2022-08-07T14:09:06.978Z,39.54
2022-08-07T14:11:53.536Z,39.79
2022-08-07T14:14:38.591Z,40.05
2022-08-07T14:17:51.414Z,40.26
2022-08-07T14:20:42.666Z,40.44
2022-08-07T14:22:51.680Z,40.61
2022-08-07T14:25:29.494Z,40.73
2022-08-07T14:28:13.437Z,40.89
2022-08-07T14:30:45.898Z,41.01
2022-08-07T14:33:15.222Z,41.16
2022-08-07T14:35:44.938Z,41.29
2022-08-07T14:38:24.741Z,41.38
2022-08-07T14:40:59.540Z,41.49
2022-08-07T14:43:59.201Z,41.58
2022-08-07T14:46:31.384Z,41.68
2022-08-07T14:49:00.120Z,41.72
2022-08-07T14:52:03.820Z,41.77
2022-08-07T14:54:41.731Z,41.79
2022-08-07T14:57:15.026Z,41.72
2022-08-07T15:00:04.770Z,41.45
2022-08-07T15:02:34.598Z,40.95
2022-08-07T15:05:02.505Z,40.28
2022-08-07T15:10:29.670Z,38.73
2022-08-07T15:13:06.408Z,38.00
2022-08-07T15:15:52.561Z,37.27
2022-08-07T15:18:28.534Z,36.61
2022-08-07T15:25:15.512Z,35.29
2022-08-07T15:26:51.591Z,34.72
2022-08-07T15:30:10.162Z,34.21
2022-08-07T15:32:12.446Z,33.74
2022-08-07T15:34:56.888Z,33.27
2022-08-07T15:38:17.485Z,32.87
2022-08-07T15:40:34.147Z,32.55
2022-08-07T15:43:33.222Z,32.22
2022-08-07T15:54:33.980Z,31.29
2022-08-07T15:57:02.900Z,31.14
2022-08-07T15:59:38.893Z,30.99
2022-08-07T16:02:08.551Z,30.83
2022-08-07T16:04:38.461Z,30.66
2022-08-07T16:08:33.520Z,30.51
2022-08-07T16:10:21.674Z,30.36
2022-08-07T16:13:39.532Z,30.22
2022-08-07T16:16:47.791Z,30.18
2022-08-07T16:19:12.513Z,30.16
2022-08-07T16:22:07.274Z,30.30
2022-08-07T16:24:56.307Z,30.65
2022-08-07T16:27:40.550Z,31.08
2022-08-07T16:30:30.080Z,31.57
2022-08-07T16:34:01.625Z,32.10
2022-08-07T16:36:19.760Z,32.58
2022-08-07T16:39:16.516Z,33.11
2022-08-07T16:42:09.563Z,33.49
2022-08-07T16:45:14.995Z,33.73
2022-08-07T16:47:55.934Z,33.82
2022-08-07T16:51:20.397Z,33.80
2022-08-07T16:54:02.608Z,33.66
2022-08-07T16:56:54.794Z,33.49
2022-08-07T16:59:48.790Z,33.10
2022-08-07T17:02:52.205Z,32.71
2022-08-07T17:06:19.276Z,32.33
2022-08-07T17:08:51.288Z,32.01
2022-08-07T17:12:04.936Z,31.61
2022-08-07T17:14:29.909Z,31.29
2022-08-07T17:17:02.580Z,31.06
2022-08-07T17:23:14.704Z,30.58
2022-08-07T17:25:55.950Z,30.35
2022-08-07T17:28:49.853Z,30.15
2022-08-07T17:31:23.219Z,29.98
2022-08-07T17:34:18.008Z,29.78
2022-08-07T17:37:08.925Z,29.62
2022-08-07T17:39:53.015Z,29.43
2022-08-07T17:42:35.637Z,29.22
2022-08-07T17:45:30.716Z,29.05
2022-08-07T17:48:30.934Z,28.86
2022-08-07T17:51:06.855Z,28.74
2022-08-07T17:54:00.407Z,28.60
2022-08-07T17:56:35.499Z,28.46
2022-08-07T17:59:36.040Z,28.34
2022-08-07T18:02:14.636Z,28.25
2022-08-07T18:05:20.677Z,28.10
2022-08-07T18:08:10.022Z,27.97
2022-08-07T18:12:06.220Z,27.86
2022-08-07T18:14:01.837Z,27.65
2022-08-07T18:16:57.744Z,27.57
2022-08-07T18:22:14.868Z,27.26
2022-08-07T18:24:51.122Z,27.16
2022-08-07T18:27:21.774Z,27.04
2022-08-07T18:30:06.172Z,26.91
2022-08-07T18:33:15.638Z,26.69
2022-08-07T18:36:33.529Z,26.52
2022-08-07T18:40:07.245Z,26.40
2022-08-07T18:42:04.174Z,26.22
2022-08-07T18:45:45.075Z,26.09
2022-08-07T18:48:01.450Z,25.92
2022-08-07T18:50:45.741Z,25.85
2022-08-07T18:53:37.054Z,25.74
2022-08-07T18:56:18.464Z,25.63
2022-08-07T18:59:03.400Z,25.59
2022-08-07T19:02:33.160Z,25.42
2022-08-07T19:05:15.050Z,25.36
2022-08-07T19:08:05.384Z,25.23
2022-08-07T19:10:51.733Z,25.16
2022-08-07T19:13:43.961Z,25.03
2022-08-07T19:17:01.093Z,24.94
2022-08-07T19:19:58.826Z,24.83
2022-08-07T19:22:40.470Z,24.73
2022-08-07T19:26:21.799Z,24.65
2022-08-07T19:28:57.981Z,24.57
2022-08-07T19:31:43.626Z,24.48
2022-08-07T19:33:58.044Z,24.37
2022-08-07T19:36:27.792Z,24.27
2022-08-07T19:38:58.412Z,24.18
2022-08-07T19:41:44.709Z,24.06
2022-08-07T19:44:23.924Z,23.98
2022-08-07T19:47:05.721Z,23.87
2022-08-07T19:49:57.346Z,23.79
2022-08-07T19:52:30.729Z,23.70
2022-08-07T19:54:59.823Z,23.61
2022-08-07T19:58:01.449Z,23.52
2022-08-07T20:00:28.967Z,23.48
2022-08-07T20:03:35.472Z,23.38
2022-08-07T20:06:02.342Z,23.34
2022-08-07T20:08:32.840Z,23.30
2022-08-07T20:11:09.896Z,23.23
2022-08-07T20:13:51.547Z,23.17
2022-08-07T20:16:35.655Z,23.13
2022-08-07T20:19:06.101Z,23.08
2022-08-07T20:21:41.799Z,23.01
2022-08-07T20:24:18.439Z,22.95
2022-08-07T20:26:50.465Z,22.91
2022-08-07T20:29:47.872Z,22.84
2022-08-07T20:32:23.187Z,22.80
2022-08-07T20:34:56.116Z,22.74
2022-08-07T20:37:37.047Z,22.66
2022-08-07T20:40:32.640Z,22.62
2022-08-07T20:43:02.850Z,22.57
2022-08-07T20:46:25.746Z,22.51
2022-08-07T20:48:29.640Z,22.42
2022-08-07T20:51:02.901Z,22.33
2022-08-07T20:54:04.203Z,22.24
2022-08-07T20:56:26.503Z,22.18
2022-08-07T20:58:56.703Z,22.10
2022-08-07T21:01:26.205Z,22.04
2022-08-07T21:04:19.859Z,21.95
2022-08-07T21:06:53.458Z,21.91
2022-08-07T21:09:24.566Z,21.84
2022-08-07T21:11:57.580Z,21.78
2022-08-07T21:14:34.293Z,21.71
2022-08-07T21:18:00.385Z,21.64
2022-08-07T21:20:04.699Z,21.57
2022-08-07T21:22:39.047Z,21.47
2022-08-07T21:25:20.203Z,21.35
2022-08-07T21:28:02.038Z,21.28
2022-08-07T21:30:44.242Z,21.20
2022-08-07T21:33:41.139Z,21.12
2022-08-07T21:36:31.090Z,21.12
2022-08-07T21:39:51.845Z,20.96
2022-08-07T21:42:53.030Z,20.91
2022-08-07T21:46:08.083Z,20.85
2022-08-07T21:48:33.783Z,20.81
2022-08-07T21:51:33.955Z,20.69
2022-08-07T21:54:33.795Z,20.63
2022-08-07T21:57:30.924Z,20.61
2022-08-07T22:00:20.508Z,20.52
2022-08-07T22:03:10.947Z,20.43
2022-08-07T22:05:52.714Z,20.40
2022-08-07T22:08:23.325Z,20.40
2022-08-07T22:10:57.836Z,20.36
2022-08-07T22:13:50.407Z,20.33
2022-08-07T22:16:42.182Z,20.28
2022-08-07T22:19:18.145Z,20.22
2022-08-07T22:22:21.328Z,20.20
2022-08-07T22:24:55.117Z,20.12
2022-08-07T22:28:03.243Z,20.05
2022-08-07T22:30:22.196Z,20.01
2022-08-07T22:33:04.920Z,19.96
2022-08-07T22:36:06.565Z,19.88
2022-08-07T22:38:52.090Z,19.84
2022-08-07T22:42:03.751Z,19.78
2022-08-07T22:44:25.344Z,19.77
2022-08-07T22:47:29.739Z,19.70
2022-08-07T22:50:05.515Z,19.69
2022-08-07T22:53:47.151Z,19.61
2022-08-07T22:56:08.885Z,19.62
2022-08-07T22:58:57.179Z,19.50
2022-08-07T23:02:04.505Z,19.45
2022-08-07T23:06:08.908Z,19.39
2022-08-07T23:07:57.222Z,19.40
2022-08-07T23:10:36.329Z,19.36
2022-08-07T23:13:48.956Z,19.27
2022-08-07T23:17:08.574Z,19.21
2022-08-07T23:20:14.672Z,19.19
2022-08-07T23:22:41.147Z,19.19
2022-08-07T23:25:29.537Z,19.08
2022-08-07T23:28:20.650Z,19.07
2022-08-07T23:31:42.874Z,19.02
2022-08-07T23:34:37.799Z,19.00
2022-08-07T23:38:00.475Z,18.92
2022-08-07T23:40:43.859Z,18.91
2022-08-07T23:43:38.226Z,18.84
2022-08-07T23:46:43.168Z,18.77
2022-08-07T23:49:50.386Z,18.71
2022-08-07T23:53:11.780Z,18.69
2022-08-07T23:55:53.267Z,18.67
2022-08-07T23:58:36.339Z,18.61
